UAL809 KSFO-RPLL
Flight info
| Callsign | UAL809 |
|---|---|
| Flight time | N/A |
| Altitude | 30000 |
| Route | GNNRR3 ALCOA DCT BUTEN DCT 38N130W 39N140W/N0495F320 39N150W 38N160W 35N170W/N0491F340 31N180E 28N170E 26N160E/N0485F360 22N150E 20N140E 17N130E/N0480F380 DCT MUPOB Z153 POLIO POLIO1C |
| Aircraft | B77W/H-SDE1E2E3FGHIJ2J3J4J5M1RWXY/LB1D1 |
Departure
| Time | 2026-05-06 04:51 |
|---|---|
| Airport | San Francisco International Airport (KSFO) |
Arrival
| Time | N/A |
|---|---|
| Airport | Ninoy Aquino International Airport (RPLL) |
| Time | Latitude | Longitude | Altitude | Speed | Heading |
|---|---|---|---|---|---|
| 2026-05-06 04:16 | 37.61869 | -122.39178 | 24 ft | 0 kts | 207° |
| 2026-05-06 04:27 | 37.61869 | -122.39177 | 24 ft | 0 kts | 207° |
| 2026-05-06 04:27 | 37.61869 | -122.39178 | 24 ft | 0 kts | 207° |
| 2026-05-06 04:27 | 37.61869 | -122.39177 | 24 ft | 0 kts | 207° |
| 2026-05-06 04:36 | 37.61877 | -122.39173 | 29 ft | 2 kts | 207° |
| 2026-05-06 04:36 | 37.61891 | -122.39163 | 29 ft | 3 kts | 211° |
| 2026-05-06 04:36 | 37.61905 | -122.39151 | 29 ft | 3 kts | 231° |
| 2026-05-06 04:36 | 37.61914 | -122.39134 | 29 ft | 3 kts | 257° |
| 2026-05-06 04:37 | 37.61916 | -122.39114 | 29 ft | 3 kts | 282° |
| 2026-05-06 04:37 | 37.61910 | -122.39091 | 29 ft | 3 kts | 295° |
| 2026-05-06 04:37 | 37.61901 | -122.39068 | 29 ft | 3 kts | 298° |
| 2026-05-06 04:37 | 37.61896 | -122.39056 | 24 ft | 4 kts | 298° |
| 2026-05-06 04:40 | 37.61910 | -122.39090 | 24 ft | 8 kts | 298° |
| 2026-05-06 04:40 | 37.61932 | -122.39142 | 26 ft | 6 kts | 298° |
| 2026-05-06 04:40 | 37.61941 | -122.39163 | 25 ft | 0 kts | 298° |
| 2026-05-06 04:41 | 37.61941 | -122.39164 | 25 ft | 0 kts | 298° |
| 2026-05-06 04:42 | 37.61946 | -122.39175 | 25 ft | 4 kts | 298° |
| 2026-05-06 04:42 | 37.61965 | -122.39217 | 28 ft | 7 kts | 305° |
| 2026-05-06 04:42 | 37.62011 | -122.39240 | 26 ft | 8 kts | 5° |
| 2026-05-06 04:42 | 37.62069 | -122.39210 | 25 ft | 10 kts | 27° |
| 2026-05-06 04:43 | 37.62136 | -122.39168 | 28 ft | 10 kts | 27° |
| 2026-05-06 04:43 | 37.62197 | -122.39128 | 28 ft | 10 kts | 30° |
| 2026-05-06 04:43 | 37.62237 | -122.39059 | 26 ft | 10 kts | 72° |
| 2026-05-06 04:43 | 37.62258 | -122.38975 | 27 ft | 10 kts | 72° |
| 2026-05-06 04:44 | 37.62251 | -122.38890 | 27 ft | 10 kts | 114° |
| 2026-05-06 04:44 | 37.62220 | -122.38812 | 25 ft | 10 kts | 117° |
| 2026-05-06 04:44 | 37.62189 | -122.38735 | 28 ft | 10 kts | 117° |
| 2026-05-06 04:44 | 37.62156 | -122.38658 | 29 ft | 10 kts | 118° |
| 2026-05-06 04:45 | 37.62124 | -122.38580 | 27 ft | 10 kts | 118° |
| 2026-05-06 04:45 | 37.62091 | -122.38503 | 28 ft | 10 kts | 118° |
| 2026-05-06 04:45 | 37.62059 | -122.38425 | 26 ft | 10 kts | 118° |
| 2026-05-06 04:45 | 37.62026 | -122.38348 | 24 ft | 10 kts | 118° |
| 2026-05-06 04:46 | 37.61992 | -122.38265 | 27 ft | 13 kts | 118° |
| 2026-05-06 04:46 | 37.61934 | -122.38127 | 25 ft | 21 kts | 118° |
| 2026-05-06 04:46 | 37.61868 | -122.37969 | 28 ft | 20 kts | 118° |
| 2026-05-06 04:46 | 37.61812 | -122.37813 | 27 ft | 19 kts | 111° |
| 2026-05-06 04:47 | 37.61763 | -122.37655 | 28 ft | 19 kts | 111° |
| 2026-05-06 04:47 | 37.61712 | -122.37498 | 25 ft | 19 kts | 117° |
| 2026-05-06 04:47 | 37.61650 | -122.37349 | 27 ft | 19 kts | 118° |
| 2026-05-06 04:47 | 37.61587 | -122.37199 | 28 ft | 19 kts | 117° |
| 2026-05-06 04:48 | 37.61527 | -122.37052 | 25 ft | 19 kts | 117° |
| 2026-05-06 04:48 | 37.61456 | -122.36911 | 24 ft | 19 kts | 132° |
| 2026-05-06 04:48 | 37.61369 | -122.36784 | 27 ft | 19 kts | 124° |
| 2026-05-06 04:48 | 37.61305 | -122.36637 | 28 ft | 19 kts | 117° |
| 2026-05-06 04:49 | 37.61243 | -122.36488 | 26 ft | 19 kts | 117° |
| 2026-05-06 04:49 | 37.61181 | -122.36340 | 26 ft | 19 kts | 117° |
| 2026-05-06 04:49 | 37.61117 | -122.36193 | 28 ft | 19 kts | 119° |
| 2026-05-06 04:49 | 37.61062 | -122.36057 | 26 ft | 16 kts | 112° |
| 2026-05-06 04:50 | 37.61082 | -122.35924 | 26 ft | 16 kts | 48° |
| 2026-05-06 04:50 | 37.61171 | -122.35861 | 24 ft | 11 kts | 5° |
| 2026-05-06 04:50 | 37.61193 | -122.35891 | 27 ft | 0 kts | 297° |
| 2026-05-06 04:50 | 37.61195 | -122.35895 | 27 ft | 5 kts | 297° |
| 2026-05-06 04:51 | 37.61327 | -122.36209 | 25 ft | 82 kts | 297° |
| 2026-05-06 04:51 | 37.61727 | -122.37161 | 27 ft | 163 kts | 298° |
| 2026-05-06 04:51 | 37.62374 | -122.38686 | 134 ft | 221 kts | 297° |
| 2026-05-06 04:51 | 37.63094 | -122.40306 | 1382 ft | 208 kts | 298° |
| 2026-05-06 04:52 | 37.63817 | -122.41997 | 2183 ft | 228 kts | 298° |
| 2026-05-06 04:52 | 37.64591 | -122.43787 | 2480 ft | 241 kts | 298° |
| 2026-05-06 04:52 | 37.65435 | -122.45719 | 2597 ft | 257 kts | 298° |
| 2026-05-06 04:52 | 37.66314 | -122.47703 | 3212 ft | 259 kts | 298° |
| 2026-05-06 04:53 | 37.67186 | -122.49685 | 3938 ft | 257 kts | 295° |
| 2026-05-06 04:53 | 37.67663 | -122.51861 | 4301 ft | 261 kts | 272° |
| 2026-05-06 04:53 | 37.67766 | -122.54166 | 4844 ft | 264 kts | 272° |
| 2026-05-06 04:53 | 37.67889 | -122.56454 | 5456 ft | 266 kts | 273° |
| 2026-05-06 04:54 | 37.68022 | -122.58806 | 6018 ft | 271 kts | 273° |
| 2026-05-06 04:54 | 37.68159 | -122.61193 | 6597 ft | 275 kts | 274° |
| 2026-05-06 04:54 | 37.68299 | -122.63614 | 7149 ft | 278 kts | 274° |
| 2026-05-06 04:54 | 37.68443 | -122.66058 | 7698 ft | 281 kts | 275° |
| 2026-05-06 04:55 | 37.68589 | -122.68535 | 8234 ft | 285 kts | 275° |
| 2026-05-06 04:55 | 37.68737 | -122.71040 | 8769 ft | 288 kts | 275° |
| 2026-05-06 04:55 | 37.68888 | -122.73581 | 9318 ft | 291 kts | 275° |
| 2026-05-06 04:55 | 37.69040 | -122.76149 | 9880 ft | 294 kts | 275° |
| 2026-05-06 04:56 | 37.69193 | -122.78731 | 10388 ft | 297 kts | 276° |
| 2026-05-06 04:56 | 37.69347 | -122.81341 | 10879 ft | 300 kts | 276° |
| 2026-05-06 04:56 | 37.69500 | -122.83944 | 11347 ft | 303 kts | 276° |
| 2026-05-06 04:56 | 37.69656 | -122.86607 | 11825 ft | 306 kts | 277° |
| 2026-05-06 04:57 | 37.69814 | -122.89299 | 12311 ft | 309 kts | 277° |
| 2026-05-06 04:57 | 37.69973 | -122.92023 | 12757 ft | 315 kts | 277° |
| 2026-05-06 04:57 | 37.70140 | -122.94855 | 12899 ft | 332 kts | 277° |
| 2026-05-06 04:57 | 37.70316 | -122.97834 | 13060 ft | 349 kts | 277° |
| 2026-05-06 04:58 | 37.70499 | -123.00966 | 13207 ft | 367 kts | 277° |
| 2026-05-06 04:58 | 37.70690 | -123.04255 | 13356 ft | 385 kts | 277° |
| 2026-05-06 04:58 | 37.70881 | -123.07580 | 13633 ft | 398 kts | 277° |
| 2026-05-06 04:58 | 37.71077 | -123.11055 | 14055 ft | 406 kts | 278° |
| 2026-05-06 04:59 | 37.71277 | -123.14637 | 14572 ft | 412 kts | 278° |
| 2026-05-06 04:59 | 37.71477 | -123.18262 | 15153 ft | 415 kts | 278° |
| 2026-05-06 04:59 | 37.71678 | -123.21917 | 15721 ft | 419 kts | 278° |
| 2026-05-06 04:59 | 37.71881 | -123.25607 | 16272 ft | 423 kts | 278° |
| 2026-05-06 05:00 | 37.72086 | -123.29335 | 16813 ft | 428 kts | 278° |
| 2026-05-06 05:00 | 37.72292 | -123.33102 | 17374 ft | 432 kts | 278° |
| 2026-05-06 05:00 | 37.72499 | -123.36902 | 17918 ft | 436 kts | 278° |
| 2026-05-06 05:00 | 37.72707 | -123.40735 | 18467 ft | 439 kts | 277° |
| 2026-05-06 05:01 | 37.72915 | -123.44606 | 18948 ft | 443 kts | 277° |
| 2026-05-06 05:01 | 37.73120 | -123.48450 | 19139 ft | 447 kts | 277° |
| 2026-05-06 05:01 | 37.73327 | -123.52358 | 19126 ft | 446 kts | 277° |
| 2026-05-06 05:01 | 37.73532 | -123.56266 | 19217 ft | 448 kts | 277° |
| 2026-05-06 05:02 | 37.73739 | -123.60205 | 19714 ft | 450 kts | 277° |
| 2026-05-06 05:02 | 37.73945 | -123.64163 | 20242 ft | 453 kts | 277° |
| 2026-05-06 05:02 | 37.74152 | -123.68140 | 20721 ft | 456 kts | 277° |
| 2026-05-06 05:02 | 37.74359 | -123.72158 | 21153 ft | 460 kts | 277° |
| 2026-05-06 05:03 | 37.74567 | -123.76209 | 21584 ft | 464 kts | 277° |
| 2026-05-06 05:03 | 37.74775 | -123.80292 | 22003 ft | 469 kts | 277° |
| 2026-05-06 05:03 | 37.74982 | -123.84370 | 22371 ft | 473 kts | 277° |
| 2026-05-06 05:03 | 37.75189 | -123.88525 | 22910 ft | 475 kts | 277° |
| 2026-05-06 05:04 | 37.75396 | -123.92695 | 23384 ft | 477 kts | 277° |
| 2026-05-06 05:04 | 37.75603 | -123.96894 | 23780 ft | 481 kts | 277° |
| 2026-05-06 05:04 | 37.75810 | -124.01121 | 24131 ft | 484 kts | 277° |
| 2026-05-06 05:04 | 37.76017 | -124.05379 | 24499 ft | 486 kts | 277° |
| 2026-05-06 05:05 | 37.76223 | -124.09651 | 24877 ft | 488 kts | 277° |
| 2026-05-06 05:05 | 37.76428 | -124.13940 | 25240 ft | 490 kts | 277° |
| 2026-05-06 05:05 | 37.76633 | -124.18247 | 25607 ft | 492 kts | 276° |
| 2026-05-06 05:05 | 37.76834 | -124.22518 | 25945 ft | 495 kts | 276° |
| 2026-05-06 05:06 | 37.77038 | -124.26878 | 26274 ft | 498 kts | 276° |
| 2026-05-06 05:06 | 37.77242 | -124.31253 | 26599 ft | 500 kts | 276° |
| 2026-05-06 05:06 | 37.77444 | -124.35645 | 26938 ft | 502 kts | 276° |
| 2026-05-06 05:06 | 37.77646 | -124.40057 | 27264 ft | 504 kts | 276° |
| 2026-05-06 05:07 | 37.77847 | -124.44496 | 27569 ft | 507 kts | 276° |
| 2026-05-06 05:07 | 37.78047 | -124.48947 | 27864 ft | 509 kts | 276° |
| 2026-05-06 05:07 | 37.78246 | -124.53418 | 28178 ft | 511 kts | 276° |
| 2026-05-06 05:07 | 37.78445 | -124.57912 | 28463 ft | 513 kts | 276° |
| 2026-05-06 05:08 | 37.78640 | -124.62362 | 28714 ft | 515 kts | 276° |
| 2026-05-06 05:08 | 37.78836 | -124.66892 | 28994 ft | 517 kts | 276° |
| 2026-05-06 05:08 | 37.79032 | -124.71432 | 29272 ft | 518 kts | 276° |
| 2026-05-06 05:08 | 37.79225 | -124.75980 | 29594 ft | 518 kts | 276° |
| 2026-05-06 05:09 | 37.79417 | -124.80520 | 29964 ft | 517 kts | 276° |
| 2026-05-06 05:09 | 37.79607 | -124.85068 | 30112 ft | 519 kts | 276° |
| 2026-05-06 05:09 | 37.79796 | -124.89621 | 30137 ft | 518 kts | 276° |
| 2026-05-06 05:10 | 37.80166 | -124.98687 | 30133 ft | 514 kts | 276° |
| 2026-05-06 05:10 | 37.80525 | -125.07643 | 30152 ft | 513 kts | 276° |
| 2026-05-06 05:11 | 37.80881 | -125.16655 | 30153 ft | 513 kts | 276° |
| 2026-05-06 05:11 | 37.81229 | -125.25665 | 30147 ft | 512 kts | 276° |
| 2026-05-06 05:12 | 37.81565 | -125.34532 | 30153 ft | 512 kts | 276° |
| 2026-05-06 05:12 | 37.81897 | -125.43468 | 30150 ft | 512 kts | 276° |
| 2026-05-06 05:13 | 37.82224 | -125.52468 | 30158 ft | 512 kts | 276° |
| 2026-05-06 05:13 | 37.82544 | -125.61454 | 30154 ft | 511 kts | 276° |
| 2026-05-06 05:14 | 37.82857 | -125.70449 | 30157 ft | 512 kts | 276° |
| 2026-05-06 05:14 | 37.83162 | -125.79364 | 30156 ft | 511 kts | 276° |
| 2026-05-06 05:15 | 37.83431 | -125.88345 | 30162 ft | 511 kts | 275° |
| 2026-05-06 05:15 | 37.83581 | -125.97339 | 30162 ft | 512 kts | 274° |
| 2026-05-06 05:16 | 37.83710 | -126.06348 | 30165 ft | 512 kts | 274° |
| 2026-05-06 05:16 | 37.83846 | -126.15279 | 30162 ft | 510 kts | 274° |
| 2026-05-06 05:17 | 37.83986 | -126.24260 | 30171 ft | 511 kts | 274° |
| 2026-05-06 05:17 | 37.84053 | -126.28731 | 29836 ft | 503 kts | 274° |
| 2026-05-06 05:17 | 37.84115 | -126.33121 | 29994 ft | 498 kts | 274° |
| 2026-05-06 05:18 | 37.84242 | -126.41871 | 30131 ft | 497 kts | 274° |
| 2026-05-06 05:18 | 37.84361 | -126.50609 | 30165 ft | 495 kts | 274° |
| 2026-05-06 05:19 | 37.84468 | -126.59294 | 30176 ft | 493 kts | 274° |
| 2026-05-06 05:19 | 37.84568 | -126.67903 | 30179 ft | 493 kts | 274° |
| 2026-05-06 05:20 | 37.84666 | -126.76583 | 30180 ft | 494 kts | 273° |
| 2026-05-06 05:20 | 37.84758 | -126.85263 | 30186 ft | 494 kts | 273° |
| 2026-05-06 05:21 | 37.84847 | -126.93949 | 30181 ft | 493 kts | 273° |
| 2026-05-06 05:21 | 37.85011 | -127.02561 | 30182 ft | 492 kts | 276° |
| 2026-05-06 05:22 | 37.85537 | -127.11183 | 30186 ft | 492 kts | 277° |
| 2026-05-06 05:22 | 37.86109 | -127.19813 | 30187 ft | 492 kts | 277° |
| 2026-05-06 05:23 | 37.86656 | -127.28437 | 30191 ft | 492 kts | 277° |
| 2026-05-06 05:23 | 37.87434 | -127.41325 | 30188 ft | 492 kts | 277° |
| 2026-05-06 05:24 | 37.87944 | -127.49963 | 30193 ft | 492 kts | 277° |
| 2026-05-06 05:24 | 37.88448 | -127.58595 | 30197 ft | 492 kts | 277° |
| 2026-05-06 05:25 | 37.88947 | -127.67232 | 30196 ft | 492 kts | 276° |
| 2026-05-06 05:25 | 37.89436 | -127.75809 | 30197 ft | 492 kts | 276° |
| 2026-05-06 05:26 | 37.89922 | -127.84449 | 30201 ft | 492 kts | 276° |
| 2026-05-06 05:26 | 37.90402 | -127.93094 | 30201 ft | 493 kts | 276° |
| 2026-05-06 05:27 | 37.90797 | -128.00289 | 30204 ft | 492 kts | 276° |
| 2026-05-06 05:27 | 37.91266 | -128.08938 | 30208 ft | 492 kts | 276° |
| 2026-05-06 05:28 | 37.91803 | -128.18990 | 30204 ft | 493 kts | 276° |
| 2026-05-06 05:28 | 37.92182 | -128.26184 | 30209 ft | 492 kts | 276° |
| 2026-05-06 05:29 | 37.92632 | -128.34838 | 30215 ft | 492 kts | 276° |
| 2026-05-06 05:29 | 37.93076 | -128.43491 | 30217 ft | 492 kts | 276° |
| 2026-05-06 05:30 | 37.93588 | -128.53546 | 30218 ft | 492 kts | 275° |
| 2026-05-06 05:30 | 37.93947 | -128.60793 | 30219 ft | 492 kts | 275° |